createdAt,value
2017-07-31T00:00:42.063Z,1007.03
2017-07-31T00:01:42.090Z,1007.02
2017-07-31T00:02:42.117Z,1007.01
2017-07-31T00:03:42.141Z,1007.05
2017-07-31T00:04:42.171Z,1007.08
2017-07-31T00:05:42.201Z,1007.1
2017-07-31T00:06:42.224Z,1007.11
2017-07-31T00:07:42.249Z,1007.13
2017-07-31T00:09:42.304Z,1007.14
2017-07-31T00:10:42.333Z,1007.19
2017-07-31T00:11:42.361Z,1007.16
2017-07-31T00:12:42.389Z,1007.21
2017-07-31T00:13:42.413Z,1007.19
2017-07-31T00:14:42.442Z,1007.2
2017-07-31T00:15:42.464Z,1007.19
2017-07-31T00:16:42.495Z,1007.19
2017-07-31T00:17:42.521Z,1007.21
2017-07-31T00:18:42.549Z,1007.2
2017-07-31T00:19:42.577Z,1007.23
2017-07-31T00:20:42.600Z,1007.27
2017-07-31T00:21:42.630Z,1007.28
2017-07-31T00:22:42.655Z,1007.3
2017-07-31T00:23:42.684Z,1007.32
2017-07-31T00:24:42.708Z,1007.34
2017-07-31T00:25:42.733Z,1007.34
2017-07-31T00:26:42.760Z,1007.35
2017-07-31T00:27:42.787Z,1007.3
2017-07-31T00:28:42.814Z,1007.3
2017-07-31T00:29:42.840Z,1007.35
2017-07-31T00:30:42.870Z,1007.41
2017-07-31T00:31:42.898Z,1007.39
2017-07-31T00:32:42.924Z,1007.34
2017-07-31T00:33:42.952Z,1007.35
2017-07-31T00:34:42.975Z,1007.4
2017-07-31T00:35:43.002Z,1007.37
2017-07-31T00:36:43.043Z,1007.36
2017-07-31T00:37:43.057Z,1007.35
2017-07-31T00:38:43.080Z,1007.41
2017-07-31T00:39:43.110Z,1007.39
2017-07-31T00:41:43.162Z,1007.38
2017-07-31T00:42:43.188Z,1007.47
2017-07-31T00:43:43.230Z,1007.4
2017-07-31T00:44:43.242Z,1007.38
2017-07-31T00:45:43.269Z,1007.39
2017-07-31T00:46:43.295Z,1007.45
2017-07-31T00:47:43.319Z,1007.41
2017-07-31T00:48:43.347Z,1007.44
2017-07-31T00:49:43.375Z,1007.39
2017-07-31T00:50:43.400Z,1007.39
2017-07-31T00:51:43.427Z,1007.37
2017-07-31T00:52:43.454Z,1007.4
2017-07-31T00:53:43.481Z,1007.43
2017-07-31T00:54:43.506Z,1007.45
2017-07-31T00:55:43.535Z,1007.48
2017-07-31T00:57:43.586Z,1007.49
2017-07-31T00:58:43.608Z,1007.5
2017-07-31T00:59:43.639Z,1007.47
2017-07-31T01:00:43.667Z,1007.51
2017-07-31T01:01:43.691Z,1007.52
2017-07-31T01:02:43.717Z,1007.53
2017-07-31T01:03:43.744Z,1007.57
2017-07-31T01:04:43.770Z,1007.6
2017-07-31T01:05:43.793Z,1007.61
2017-07-31T01:06:43.824Z,1007.65
2017-07-31T01:07:43.850Z,1007.65
2017-07-31T01:08:43.880Z,1007.71
2017-07-31T01:09:43.902Z,1007.78
2017-07-31T01:10:43.932Z,1007.81
2017-07-31T01:11:43.957Z,1007.89
2017-07-31T01:13:44.008Z,1007.85
2017-07-31T01:14:44.033Z,1007.86
2017-07-31T01:15:44.062Z,1007.88
2017-07-31T01:16:44.086Z,1007.88
2017-07-31T01:17:44.113Z,1007.9
2017-07-31T01:18:44.140Z,1007.87
2017-07-31T01:19:44.165Z,1007.84
2017-07-31T01:20:44.193Z,1007.84
2017-07-31T01:21:44.222Z,1007.85
2017-07-31T01:22:44.244Z,1007.84
2017-07-31T01:23:44.273Z,1007.8
2017-07-31T01:24:44.295Z,1007.8
2017-07-31T01:25:44.326Z,1007.77
2017-07-31T01:26:44.352Z,1007.79
2017-07-31T01:27:44.374Z,1007.79
2017-07-31T01:29:44.429Z,1007.82
2017-07-31T01:30:44.457Z,1007.77
2017-07-31T01:31:44.482Z,1007.78
2017-07-31T01:32:44.506Z,1007.78
2017-07-31T01:33:44.536Z,1007.78
2017-07-31T01:34:44.562Z,1007.73
2017-07-31T01:35:44.587Z,1007.75
2017-07-31T01:36:44.613Z,1007.79
2017-07-31T01:37:44.640Z,1007.77
2017-07-31T01:38:44.667Z,1007.77
2017-07-31T01:39:44.695Z,1007.78
2017-07-31T01:40:44.720Z,1007.8
2017-07-31T01:41:44.747Z,1007.77
2017-07-31T01:42:44.772Z,1007.77
2017-07-31T01:44:44.828Z,1007.81
2017-07-31T01:45:44.849Z,1007.78
2017-07-31T01:46:44.875Z,1007.79
2017-07-31T01:47:44.904Z,1007.79
2017-07-31T01:48:44.933Z,1007.75
2017-07-31T01:49:44.958Z,1007.75
2017-07-31T01:50:44.981Z,1007.71
2017-07-31T01:51:45.011Z,1007.72
2017-07-31T01:52:45.035Z,1007.72
2017-07-31T01:53:45.060Z,1007.7
2017-07-31T01:54:45.091Z,1007.73
2017-07-31T01:55:45.116Z,1007.7
2017-07-31T01:56:45.141Z,1007.7
2017-07-31T01:57:45.164Z,1007.65
2017-07-31T01:58:45.194Z,1007.65
2017-07-31T01:59:45.219Z,1007.66
2017-07-31T02:00:45.245Z,1007.66
2017-07-31T02:01:45.271Z,1007.64
2017-07-31T02:02:45.302Z,1007.64
2017-07-31T02:03:45.330Z,1007.62
2017-07-31T02:04:45.351Z,1007.61
2017-07-31T02:05:45.376Z,1007.63
2017-07-31T02:06:45.399Z,1007.63
2017-07-31T02:07:45.429Z,1007.61
2017-07-31T02:08:45.455Z,1007.58
2017-07-31T02:09:45.482Z,1007.6
2017-07-31T02:10:45.504Z,1007.61
2017-07-31T02:11:45.531Z,1007.61
2017-07-31T02:12:45.558Z,1007.59
2017-07-31T02:13:45.587Z,1007.63
2017-07-31T02:14:45.615Z,1007.64
2017-07-31T02:16:45.664Z,1007.63
2017-07-31T02:17:45.694Z,1007.63
2017-07-31T02:18:45.718Z,1007.71
2017-07-31T02:19:45.738Z,1007.69
2017-07-31T02:20:45.769Z,1007.74
2017-07-31T02:21:45.795Z,1007.78
2017-07-31T02:22:45.824Z,1007.84
2017-07-31T02:23:45.850Z,1007.88
2017-07-31T02:24:45.872Z,1007.86
2017-07-31T02:25:45.900Z,1007.87
2017-07-31T02:26:45.927Z,1007.87
2017-07-31T02:27:45.953Z,1007.87
2017-07-31T02:28:45.981Z,1007.89
2017-07-31T02:29:46.005Z,1007.89
2017-07-31T02:30:46.027Z,1007.89
2017-07-31T02:32:46.085Z,1007.95
2017-07-31T02:33:46.107Z,1007.94
2017-07-31T02:34:46.135Z,1007.97
2017-07-31T02:35:46.159Z,1007.96
2017-07-31T02:36:46.188Z,1007.99
2017-07-31T02:37:46.211Z,1007.98
2017-07-31T02:38:46.241Z,1007.99
2017-07-31T02:39:46.268Z,1007.99
2017-07-31T02:40:46.291Z,1007.98
2017-07-31T02:41:46.319Z,1008
2017-07-31T02:42:46.644Z,1007.97
2017-07-31T02:43:46.373Z,1007.97
2017-07-31T02:44:46.397Z,1007.98
2017-07-31T02:45:46.424Z,1007.97
2017-07-31T02:46:46.453Z,1008
2017-07-31T02:48:46.502Z,1007.99
2017-07-31T02:49:46.529Z,1007.97
2017-07-31T02:50:46.555Z,1008.05
2017-07-31T02:51:46.580Z,1008.05
2017-07-31T02:52:46.605Z,1008.01
2017-07-31T02:53:46.635Z,1008
2017-07-31T02:54:46.657Z,1008
2017-07-31T02:55:46.684Z,1007.98
2017-07-31T02:56:46.709Z,1007.97
2017-07-31T02:57:46.735Z,1007.96
2017-07-31T02:58:46.762Z,1007.92
2017-07-31T02:59:46.787Z,1007.93
2017-07-31T03:00:46.813Z,1007.93
2017-07-31T03:01:46.839Z,1007.91
2017-07-31T03:02:46.868Z,1007.92
2017-07-31T03:04:46.919Z,1007.96
2017-07-31T03:05:46.945Z,1007.97
2017-07-31T03:06:46.972Z,1007.99
2017-07-31T03:07:46.992Z,1008.01
2017-07-31T03:08:47.023Z,1008.08
2017-07-31T03:09:47.046Z,1008.09
2017-07-31T03:10:47.074Z,1008.1
2017-07-31T03:11:47.101Z,1008.1
2017-07-31T03:12:47.127Z,1008.1
2017-07-31T03:13:47.153Z,1008.06
2017-07-31T03:14:47.175Z,1008.04
2017-07-31T03:15:47.205Z,1008.02
2017-07-31T03:16:47.230Z,1008.05
2017-07-31T03:17:47.258Z,1008.06
2017-07-31T03:19:47.311Z,1008.02
2017-07-31T03:20:47.335Z,1008.03
2017-07-31T03:21:47.362Z,1008.06
2017-07-31T03:22:47.386Z,1008.08
2017-07-31T03:23:47.413Z,1008.1
2017-07-31T03:24:47.440Z,1008.13
2017-07-31T03:25:47.464Z,1008.12
2017-07-31T03:26:47.494Z,1008.13
2017-07-31T03:27:47.517Z,1008.16
2017-07-31T03:28:47.538Z,1008.22
2017-07-31T03:29:47.566Z,1008.2
2017-07-31T03:30:47.590Z,1008.19
2017-07-31T03:31:47.622Z,1008.22
2017-07-31T03:32:47.648Z,1008.2
2017-07-31T03:33:47.670Z,1008.2
2017-07-31T03:34:47.702Z,1008.23
2017-07-31T03:35:47.721Z,1008.22
2017-07-31T03:36:47.750Z,1008.24
2017-07-31T03:37:47.773Z,1008.25
2017-07-31T03:38:47.802Z,1008.23
2017-07-31T03:39:47.825Z,1008.22
2017-07-31T03:40:47.855Z,1008.23
2017-07-31T03:41:47.882Z,1008.21
2017-07-31T03:42:47.905Z,1008.24
2017-07-31T03:43:47.932Z,1008.22
2017-07-31T03:44:47.957Z,1008.23
2017-07-31T03:45:47.984Z,1008.26
2017-07-31T03:46:48.009Z,1008.26
2017-07-31T03:47:48.035Z,1008.26
2017-07-31T03:48:48.063Z,1008.3
2017-07-31T03:49:48.089Z,1008.31
2017-07-31T03:51:48.136Z,1008.35
2017-07-31T03:52:48.168Z,1008.37
2017-07-31T03:53:48.188Z,1008.41
2017-07-31T03:54:48.215Z,1008.42
2017-07-31T03:55:48.243Z,1008.4
2017-07-31T03:56:48.269Z,1008.41
2017-07-31T03:57:48.293Z,1008.41
2017-07-31T03:58:48.316Z,1008.38
2017-07-31T03:59:48.346Z,1008.4
2017-07-31T04:00:48.369Z,1008.43
2017-07-31T04:01:48.396Z,1008.44
2017-07-31T04:02:48.421Z,1008.49
2017-07-31T04:03:48.445Z,1008.48
2017-07-31T04:04:48.475Z,1008.46
2017-07-31T04:05:48.500Z,1008.49
2017-07-31T04:07:48.557Z,1008.53
2017-07-31T04:08:48.576Z,1008.58
2017-07-31T04:09:48.605Z,1008.56
2017-07-31T04:10:48.631Z,1008.61
2017-07-31T04:11:48.654Z,1008.63
2017-07-31T04:12:48.682Z,1008.62
2017-07-31T04:13:48.711Z,1008.6
2017-07-31T04:14:48.731Z,1008.63
2017-07-31T04:15:48.760Z,1008.66
2017-07-31T04:16:48.784Z,1008.71
2017-07-31T04:17:48.812Z,1008.71
2017-07-31T04:18:48.841Z,1008.7
2017-07-31T04:19:48.866Z,1008.68
2017-07-31T04:20:48.885Z,1008.7
2017-07-31T04:21:48.911Z,1008.73
2017-07-31T04:23:48.967Z,1008.72
2017-07-31T04:24:48.992Z,1008.7
2017-07-31T04:25:49.019Z,1008.7
2017-07-31T04:26:49.046Z,1008.68
2017-07-31T04:27:49.070Z,1008.67
2017-07-31T04:28:49.098Z,1008.68
2017-07-31T04:29:49.120Z,1008.64
2017-07-31T04:30:49.148Z,1008.65
2017-07-31T04:31:49.169Z,1008.66
2017-07-31T04:32:49.200Z,1008.68
2017-07-31T04:33:49.221Z,1008.66
2017-07-31T04:34:49.251Z,1008.69
2017-07-31T04:35:49.278Z,1008.65
2017-07-31T04:36:49.307Z,1008.68
2017-07-31T04:37:49.329Z,1008.68
2017-07-31T04:39:49.383Z,1008.7
2017-07-31T04:40:49.405Z,1008.7
2017-07-31T04:41:49.430Z,1008.68
2017-07-31T04:42:49.457Z,1008.7
2017-07-31T04:43:49.486Z,1008.7
2017-07-31T04:44:49.507Z,1008.68
2017-07-31T04:45:49.535Z,1008.68
2017-07-31T04:46:49.561Z,1008.68
2017-07-31T04:47:49.590Z,1008.71
2017-07-31T04:48:49.613Z,1008.71
2017-07-31T04:49:49.638Z,1008.68
2017-07-31T04:50:49.667Z,1008.7
2017-07-31T04:51:49.691Z,1008.7
2017-07-31T04:52:49.718Z,1008.68
2017-07-31T04:54:49.771Z,1008.76
2017-07-31T04:55:49.792Z,1008.77
2017-07-31T04:56:49.821Z,1008.74
2017-07-31T04:57:49.847Z,1008.81
2017-07-31T04:58:49.876Z,1008.81
2017-07-31T04:59:49.896Z,1008.82
2017-07-31T05:00:49.927Z,1008.85
2017-07-31T05:01:49.947Z,1008.9
2017-07-31T05:02:49.973Z,1008.89
2017-07-31T05:03:50.004Z,1008.93
2017-07-31T05:04:50.030Z,1008.91
2017-07-31T05:05:50.056Z,1008.91
2017-07-31T05:06:50.079Z,1008.93
2017-07-31T05:07:50.104Z,1008.95
2017-07-31T05:08:50.136Z,1008.94
2017-07-31T05:09:50.160Z,1008.92
2017-07-31T05:10:50.179Z,1009.01
2017-07-31T05:11:50.209Z,1008.99
2017-07-31T05:12:50.234Z,1008.98
2017-07-31T05:13:50.262Z,1009.02
2017-07-31T05:14:50.288Z,1009.05
2017-07-31T05:15:50.309Z,1009.05
2017-07-31T05:16:50.344Z,1009.07
2017-07-31T05:17:50.365Z,1009.1
2017-07-31T05:18:50.392Z,1009.13
2017-07-31T05:19:50.417Z,1009.14
2017-07-31T05:20:50.442Z,1009.13
2017-07-31T05:21:50.472Z,1009.13
2017-07-31T05:22:50.499Z,1009.12
2017-07-31T05:23:50.520Z,1009.08
2017-07-31T05:24:50.549Z,1009.07
2017-07-31T05:26:50.601Z,1009.06
2017-07-31T05:27:50.624Z,1009.02
2017-07-31T05:28:50.652Z,1009
2017-07-31T05:29:50.679Z,1008.99
2017-07-31T05:30:50.705Z,1008.97
2017-07-31T05:31:50.732Z,1008.98
2017-07-31T05:32:50.755Z,1008.93
2017-07-31T05:33:50.781Z,1008.95
2017-07-31T05:34:50.812Z,1008.97
2017-07-31T05:35:50.835Z,1008.98
2017-07-31T05:36:50.861Z,1008.99
2017-07-31T05:37:50.887Z,1008.98
2017-07-31T05:38:50.918Z,1008.96
2017-07-31T05:39:50.937Z,1009.01
2017-07-31T05:40:50.967Z,1008.98
2017-07-31T05:42:51.019Z,1008.97
2017-07-31T05:43:51.348Z,1008.95
2017-07-31T05:44:51.069Z,1008.92
2017-07-31T05:45:51.100Z,1008.87
2017-07-31T05:46:51.125Z,1008.85
2017-07-31T05:47:51.153Z,1008.85
2017-07-31T05:48:51.179Z,1008.85
2017-07-31T05:49:51.205Z,1008.87
2017-07-31T05:50:51.226Z,1008.87
2017-07-31T05:51:51.261Z,1008.88
2017-07-31T05:52:51.280Z,1008.88
2017-07-31T05:53:51.312Z,1008.89
2017-07-31T05:54:51.341Z,1008.84
2017-07-31T05:55:51.366Z,1008.82
2017-07-31T05:56:51.390Z,1008.84
2017-07-31T05:58:51.446Z,1008.82
2017-07-31T05:59:51.475Z,1008.8
2017-07-31T06:00:51.500Z,1008.81
2017-07-31T06:01:51.528Z,1008.73
2017-07-31T06:02:51.552Z,1008.75
2017-07-31T06:03:51.585Z,1008.79
2017-07-31T06:04:51.611Z,1008.84
2017-07-31T06:05:51.638Z,1008.93
2017-07-31T06:06:51.664Z,1008.87
2017-07-31T06:07:51.693Z,1008.97
2017-07-31T06:08:51.721Z,1009.09
2017-07-31T06:09:51.746Z,1009.09
2017-07-31T06:10:51.774Z,1008.99
2017-07-31T06:11:51.804Z,1008.96
2017-07-31T06:12:51.834Z,1008.98
2017-07-31T06:14:51.893Z,1009.39
2017-07-31T06:15:51.918Z,1009.39
2017-07-31T06:16:51.951Z,1009.54
2017-07-31T06:17:51.977Z,1009.71
2017-07-31T06:18:52.010Z,1009.86
2017-07-31T06:19:52.034Z,1009.86
2017-07-31T06:20:52.066Z,1009.8
2017-07-31T06:21:52.094Z,1009.9
2017-07-31T06:22:52.126Z,1009.89
2017-07-31T06:23:52.161Z,1009.82
2017-07-31T06:24:52.189Z,1009.76
2017-07-31T06:25:52.221Z,1009.89
2017-07-31T06:26:52.250Z,1009.99
2017-07-31T06:27:52.287Z,1009.98
2017-07-31T06:29:52.352Z,1009.74
2017-07-31T06:30:52.387Z,1009.91
2017-07-31T06:31:52.421Z,1009.91
2017-07-31T06:32:52.451Z,1010.02
2017-07-31T06:33:52.484Z,1010.09
2017-07-31T06:34:52.518Z,1010.12
2017-07-31T06:35:52.547Z,1010.1
2017-07-31T06:36:52.584Z,1010.11
2017-07-31T06:37:52.618Z,1010.17
2017-07-31T06:38:52.655Z,1010.19
2017-07-31T06:39:52.688Z,1010.2
2017-07-31T06:40:52.717Z,1010.24
2017-07-31T06:41:52.756Z,1010.28
2017-07-31T06:42:52.789Z,1010.18
2017-07-31T06:43:52.827Z,1010.16
2017-07-31T06:44:52.859Z,1010.38
2017-07-31T06:45:52.898Z,1010.37
2017-07-31T06:46:52.933Z,1010.47
2017-07-31T06:47:52.968Z,1010.57
2017-07-31T06:48:53.005Z,1010.53
2017-07-31T06:49:53.039Z,1010.51
2017-07-31T06:50:53.078Z,1010.65
2017-07-31T06:51:53.108Z,1010.71
2017-07-31T06:52:53.147Z,1010.74
2017-07-31T06:53:53.184Z,1010.79
2017-07-31T06:54:53.220Z,1010.78
2017-07-31T06:55:53.255Z,1010.93
2017-07-31T06:56:53.291Z,1010.93
2017-07-31T06:57:53.328Z,1011.04
2017-07-31T06:58:53.368Z,1011.05
2017-07-31T06:59:53.399Z,1011.12
2017-07-31T07:01:53.481Z,1011.25
2017-07-31T07:02:53.519Z,1011.07
2017-07-31T07:03:53.549Z,1011.33
2017-07-31T07:04:53.591Z,1011.26
2017-07-31T07:05:53.629Z,1011.13
2017-07-31T07:06:53.665Z,1011.17
2017-07-31T07:07:53.702Z,1011.24
2017-07-31T07:08:53.742Z,1010.95
2017-07-31T07:09:54.083Z,1011.19
2017-07-31T07:10:53.813Z,1011.15
2017-07-31T07:11:53.850Z,1011.15
2017-07-31T07:12:53.892Z,1011.17
2017-07-31T07:13:53.926Z,1011.09
2017-07-31T07:14:53.967Z,1011.1
2017-07-31T07:15:54.004Z,1011.07
2017-07-31T07:17:54.080Z,1011.06
2017-07-31T07:18:54.115Z,1011.16
2017-07-31T07:19:54.159Z,1011.08
2017-07-31T07:20:54.196Z,1011.06
2017-07-31T07:21:54.230Z,1011.1
2017-07-31T07:22:54.269Z,1010.99
2017-07-31T07:23:54.305Z,1010.99
2017-07-31T07:24:54.344Z,1010.96
2017-07-31T07:25:54.381Z,1010.99
2017-07-31T07:26:54.423Z,1010.94
2017-07-31T07:27:54.461Z,1010.77
2017-07-31T07:28:54.500Z,1010.72
2017-07-31T07:29:54.534Z,1010.77
2017-07-31T07:30:54.575Z,1010.74
2017-07-31T07:31:54.614Z,1010.71
2017-07-31T07:33:54.691Z,1010.76
2017-07-31T07:34:54.725Z,1010.72
2017-07-31T07:35:54.762Z,1010.69
2017-07-31T07:36:54.801Z,1010.65
2017-07-31T07:37:54.841Z,1010.76
2017-07-31T07:38:54.879Z,1010.76
2017-07-31T07:39:54.919Z,1010.7
2017-07-31T07:40:54.955Z,1010.6
2017-07-31T07:41:54.996Z,1010.54
2017-07-31T07:42:55.033Z,1010.52
2017-07-31T07:43:55.070Z,1010.49
2017-07-31T07:44:55.110Z,1010.57
2017-07-31T07:45:55.148Z,1010.46
2017-07-31T07:46:55.183Z,1010.69
2017-07-31T07:47:55.225Z,1010.71
2017-07-31T07:49:55.298Z,1010.66
2017-07-31T07:50:55.339Z,1010.56
2017-07-31T07:51:55.374Z,1010.56
2017-07-31T07:52:55.415Z,1010.44
2017-07-31T07:53:55.452Z,1010.4
2017-07-31T07:54:55.490Z,1010.38
2017-07-31T07:55:55.531Z,1010.34
2017-07-31T07:56:55.564Z,1010.47
2017-07-31T07:57:55.608Z,1010.46
2017-07-31T07:58:55.643Z,1010.5
2017-07-31T07:59:55.681Z,1010.55
2017-07-31T08:00:55.719Z,1010.58
2017-07-31T08:01:55.755Z,1010.52
2017-07-31T08:02:55.794Z,1010.64
2017-07-31T08:04:55.873Z,1010.57
2017-07-31T08:05:55.906Z,1010.56
2017-07-31T08:06:55.948Z,1010.47
2017-07-31T08:07:55.987Z,1010.49
2017-07-31T08:08:56.025Z,1010.51
2017-07-31T08:09:56.066Z,1010.58
2017-07-31T08:10:56.100Z,1010.63
2017-07-31T08:11:56.138Z,1010.59
2017-07-31T08:12:56.174Z,1010.61
2017-07-31T08:13:56.207Z,1010.63
2017-07-31T08:14:56.247Z,1010.67
2017-07-31T08:15:56.288Z,1010.66
2017-07-31T08:16:56.323Z,1010.7
2017-07-31T08:17:56.365Z,1010.67
2017-07-31T08:18:56.400Z,1010.69
2017-07-31T08:19:56.435Z,1010.68
2017-07-31T08:20:56.473Z,1010.75
2017-07-31T08:21:56.513Z,1010.71
2017-07-31T08:22:56.551Z,1010.72
2017-07-31T08:23:56.588Z,1010.74
2017-07-31T08:24:56.625Z,1010.74
2017-07-31T08:25:56.665Z,1010.73
2017-07-31T08:26:56.696Z,1010.69
2017-07-31T08:27:56.736Z,1010.69
2017-07-31T08:28:56.774Z,1010.67
2017-07-31T08:29:56.808Z,1010.7
2017-07-31T08:30:56.848Z,1010.72
2017-07-31T08:31:56.887Z,1010.78
2017-07-31T08:32:56.925Z,1010.84
2017-07-31T08:33:56.963Z,1010.84
2017-07-31T08:34:56.998Z,1010.88
2017-07-31T08:36:57.073Z,1010.97
2017-07-31T08:37:57.108Z,1010.83
2017-07-31T08:38:57.148Z,1010.82
2017-07-31T08:39:57.181Z,1010.9
2017-07-31T08:40:57.223Z,1010.83
2017-07-31T08:41:57.260Z,1010.84
2017-07-31T08:42:57.298Z,1010.81
2017-07-31T08:43:57.332Z,1010.75
2017-07-31T08:44:57.372Z,1010.76
2017-07-31T08:45:57.409Z,1010.76
2017-07-31T08:46:57.447Z,1010.79
2017-07-31T08:47:57.485Z,1010.85
2017-07-31T08:48:57.520Z,1010.7
2017-07-31T08:49:57.559Z,1010.66
2017-07-31T08:50:57.594Z,1010.76
2017-07-31T08:52:57.668Z,1010.62
2017-07-31T08:53:57.707Z,1010.52
2017-07-31T08:54:57.742Z,1010.39
2017-07-31T08:55:57.776Z,1010.49
2017-07-31T08:56:57.815Z,1010.48
2017-07-31T08:57:57.850Z,1010.53
2017-07-31T08:58:57.888Z,1010.44
2017-07-31T08:59:57.925Z,1010.46
2017-07-31T09:00:57.962Z,1010.44
2017-07-31T09:01:58.002Z,1010.4
2017-07-31T09:02:58.033Z,1010.44
2017-07-31T09:03:58.071Z,1010.43
2017-07-31T09:04:58.111Z,1010.44
2017-07-31T09:05:58.143Z,1010.44
2017-07-31T09:06:58.181Z,1010.47
2017-07-31T09:08:58.257Z,1010.44
2017-07-31T09:09:58.291Z,1010.48
2017-07-31T09:10:58.332Z,1010.42
2017-07-31T09:11:58.366Z,1010.5
2017-07-31T09:12:58.403Z,1010.52
2017-07-31T09:13:58.437Z,1010.49
2017-07-31T09:14:58.473Z,1010.53
2017-07-31T09:15:58.515Z,1010.52
2017-07-31T09:16:58.553Z,1010.53
2017-07-31T09:17:58.587Z,1010.55
2017-07-31T09:18:58.620Z,1010.54
2017-07-31T09:19:58.661Z,1010.55
2017-07-31T09:20:58.691Z,1010.5
2017-07-31T09:21:58.729Z,1010.47
2017-07-31T09:22:58.770Z,1010.49
2017-07-31T09:24:58.842Z,1010.45
2017-07-31T09:25:58.878Z,1010.45
2017-07-31T09:26:58.915Z,1010.54
2017-07-31T09:27:58.947Z,1010.49
2017-07-31T09:28:58.988Z,1010.51
2017-07-31T09:29:59.020Z,1010.51
2017-07-31T09:30:59.058Z,1010.53
2017-07-31T09:31:59.092Z,1010.52
2017-07-31T09:32:59.131Z,1010.49
2017-07-31T09:33:59.166Z,1010.49
2017-07-31T09:34:59.201Z,1010.52
2017-07-31T09:35:59.242Z,1010.57
2017-07-31T09:36:59.277Z,1010.53
2017-07-31T09:37:59.314Z,1010.55
2017-07-31T09:39:59.381Z,1010.59
2017-07-31T09:40:59.420Z,1010.56
2017-07-31T09:41:59.456Z,1010.54
2017-07-31T09:42:59.491Z,1010.54
2017-07-31T09:43:59.531Z,1010.57
2017-07-31T09:44:59.562Z,1010.58
2017-07-31T09:45:59.600Z,1010.59
2017-07-31T09:46:59.636Z,1010.66
2017-07-31T09:47:59.667Z,1010.63
2017-07-31T09:48:59.706Z,1010.69
2017-07-31T09:49:59.741Z,1010.73
2017-07-31T09:50:59.781Z,1010.71
2017-07-31T09:51:59.815Z,1010.7
2017-07-31T09:52:59.853Z,1010.76
2017-07-31T09:53:59.884Z,1010.75
2017-07-31T09:54:59.922Z,1010.73
2017-07-31T09:55:59.954Z,1010.81
2017-07-31T09:56:59.994Z,1010.86
2017-07-31T09:58:00.028Z,1010.82
2017-07-31T09:59:00.063Z,1010.89
2017-07-31T10:00:00.099Z,1010.88
2017-07-31T10:01:00.134Z,1010.84
2017-07-31T10:02:00.173Z,1010.84
2017-07-31T10:03:00.205Z,1010.86
2017-07-31T10:04:00.243Z,1010.86
2017-07-31T10:05:00.279Z,1010.86
2017-07-31T10:06:00.313Z,1010.83
2017-07-31T10:07:00.346Z,1010.85
2017-07-31T10:08:00.386Z,1010.82
2017-07-31T10:09:00.423Z,1010.9
2017-07-31T10:10:00.454Z,1010.92
2017-07-31T10:12:00.528Z,1010.91
2017-07-31T10:13:00.561Z,1010.9
2017-07-31T10:14:00.595Z,1010.82
2017-07-31T10:15:00.632Z,1010.86
2017-07-31T10:16:00.668Z,1010.82
2017-07-31T10:17:00.707Z,1010.79
2017-07-31T10:18:00.992Z,1010.78
2017-07-31T10:19:00.771Z,1010.83
2017-07-31T10:20:00.808Z,1010.8
2017-07-31T10:21:00.842Z,1010.8
2017-07-31T10:22:00.880Z,1010.85
2017-07-31T10:23:00.914Z,1010.81
2017-07-31T10:24:00.949Z,1010.77
2017-07-31T10:25:00.986Z,1010.84
2017-07-31T10:26:01.022Z,1010.91
2017-07-31T10:28:01.093Z,1010.85
2017-07-31T10:29:01.124Z,1010.88
2017-07-31T10:30:01.157Z,1010.97
2017-07-31T10:31:01.198Z,1010.97
2017-07-31T10:32:01.231Z,1010.88
2017-07-31T10:33:01.265Z,1010.88
2017-07-31T10:34:01.298Z,1010.93
2017-07-31T10:35:01.336Z,1010.9
2017-07-31T10:36:01.367Z,1010.91
2017-07-31T10:37:01.404Z,1010.85
2017-07-31T10:38:01.440Z,1010.91
2017-07-31T10:39:01.471Z,1010.91
2017-07-31T10:40:01.510Z,1010.89
2017-07-31T10:41:01.543Z,1010.98
2017-07-31T10:42:01.581Z,1010.94
2017-07-31T10:44:01.644Z,1010.99
2017-07-31T10:45:01.684Z,1010.98
2017-07-31T10:46:01.719Z,1010.98
2017-07-31T10:47:01.751Z,1010.95
2017-07-31T10:48:01.782Z,1010.96
2017-07-31T10:49:01.821Z,1011
2017-07-31T10:50:01.852Z,1010.99
2017-07-31T10:51:01.887Z,1011.08
2017-07-31T10:52:01.922Z,1011.07
2017-07-31T10:53:01.957Z,1011.07
2017-07-31T10:54:01.989Z,1011.1
2017-07-31T10:55:02.027Z,1011.12
2017-07-31T10:56:02.061Z,1011.05
2017-07-31T10:57:02.097Z,1011.03
2017-07-31T10:58:02.129Z,1011.02
2017-07-31T11:00:02.198Z,1011.05
2017-07-31T11:01:02.225Z,1011.02
2017-07-31T11:02:02.262Z,1011.08
2017-07-31T11:03:02.295Z,1010.98
2017-07-31T11:04:02.331Z,1011.05
2017-07-31T11:05:02.370Z,1011.04
2017-07-31T11:06:02.397Z,1011.07
2017-07-31T11:07:02.428Z,1011.05
2017-07-31T11:08:02.461Z,1011.11
2017-07-31T11:09:02.499Z,1011.11
2017-07-31T11:10:02.532Z,1011.11
2017-07-31T11:11:02.566Z,1011.12
2017-07-31T11:12:02.596Z,1011.07
2017-07-31T11:13:02.635Z,1011.11
2017-07-31T11:15:02.697Z,1011.08
2017-07-31T11:16:02.736Z,1011.14
2017-07-31T11:17:02.767Z,1011.17
2017-07-31T11:18:02.796Z,1011.13
2017-07-31T11:19:02.836Z,1011.1
2017-07-31T11:20:02.859Z,1011.06
2017-07-31T11:21:02.897Z,1010.98
2017-07-31T11:22:02.927Z,1010.98
2017-07-31T11:23:02.963Z,1011.03
2017-07-31T11:24:02.998Z,1010.96
2017-07-31T11:25:03.030Z,1010.96
2017-07-31T11:26:03.065Z,1010.94
2017-07-31T11:27:03.095Z,1010.89
2017-07-31T11:28:03.128Z,1010.89
2017-07-31T11:29:03.164Z,1010.85
2017-07-31T11:30:03.203Z,1010.91
2017-07-31T11:31:03.222Z,1010.85
2017-07-31T11:32:03.260Z,1010.92
2017-07-31T11:33:03.295Z,1010.89
2017-07-31T11:34:03.323Z,1010.89
2017-07-31T11:35:03.357Z,1010.9
2017-07-31T11:36:03.388Z,1010.86
2017-07-31T11:37:03.424Z,1010.85
2017-07-31T11:38:03.455Z,1010.87
2017-07-31T11:39:03.488Z,1010.83
2017-07-31T11:40:03.521Z,1010.8
2017-07-31T11:41:03.551Z,1010.83
2017-07-31T11:42:03.583Z,1010.84
2017-07-31T11:43:03.620Z,1010.97
2017-07-31T11:44:03.652Z,1010.93
2017-07-31T11:45:03.683Z,1010.87
2017-07-31T11:47:03.747Z,1010.87
2017-07-31T11:48:03.782Z,1010.78
2017-07-31T11:49:03.813Z,1010.8
2017-07-31T11:50:03.843Z,1010.78
2017-07-31T11:51:03.878Z,1010.81
2017-07-31T11:52:03.911Z,1010.78
2017-07-31T11:53:03.942Z,1010.87
2017-07-31T11:54:03.973Z,1010.86
2017-07-31T11:55:04.005Z,1010.84
2017-07-31T11:56:04.041Z,1010.88
2017-07-31T11:57:04.071Z,1010.91
2017-07-31T11:58:04.106Z,1010.98
2017-07-31T11:59:04.137Z,1010.92
2017-07-31T12:00:04.169Z,1010.88
2017-07-31T12:01:04.201Z,1010.85
2017-07-31T12:03:04.265Z,1010.75
2017-07-31T12:04:04.294Z,1010.75
2017-07-31T12:05:04.330Z,1010.79
2017-07-31T12:06:04.361Z,1010.79
2017-07-31T12:07:04.392Z,1010.81
2017-07-31T12:08:04.426Z,1010.83
2017-07-31T12:09:04.459Z,1010.84
2017-07-31T12:10:04.493Z,1010.8
2017-07-31T12:11:04.522Z,1010.84
2017-07-31T12:12:04.551Z,1010.84
2017-07-31T12:13:04.589Z,1010.82
2017-07-31T12:14:04.617Z,1010.81
2017-07-31T12:15:04.651Z,1010.85
2017-07-31T12:16:04.682Z,1010.87
2017-07-31T12:17:04.719Z,1010.87
2017-07-31T12:19:04.782Z,1010.83
2017-07-31T12:20:04.811Z,1010.84
2017-07-31T12:21:04.845Z,1010.85
2017-07-31T12:22:04.876Z,1010.83
2017-07-31T12:23:04.910Z,1010.83
2017-07-31T12:24:04.944Z,1010.78
2017-07-31T12:25:04.971Z,1010.82
2017-07-31T12:26:05.003Z,1010.79
2017-07-31T12:27:05.036Z,1010.84
2017-07-31T12:28:05.078Z,1010.85
2017-07-31T12:29:05.103Z,1010.81
2017-07-31T12:30:05.128Z,1010.82
2017-07-31T12:31:05.165Z,1010.81
2017-07-31T12:32:05.198Z,1010.79
2017-07-31T12:33:05.228Z,1010.73
2017-07-31T12:35:05.291Z,1010.74
2017-07-31T12:36:05.330Z,1010.74
2017-07-31T12:37:05.359Z,1010.75
2017-07-31T12:38:05.392Z,1010.71
2017-07-31T12:39:05.424Z,1010.72
2017-07-31T12:40:05.455Z,1010.69
2017-07-31T12:41:05.491Z,1010.7
2017-07-31T12:42:05.522Z,1010.7
2017-07-31T12:43:05.553Z,1010.72
2017-07-31T12:44:05.633Z,1010.7
2017-07-31T12:45:05.616Z,1010.73
2017-07-31T12:46:05.646Z,1010.72
2017-07-31T12:47:05.681Z,1010.76
2017-07-31T12:48:05.715Z,1010.69
2017-07-31T12:50:05.774Z,1010.71